sensor_id;sensor_type;location;lat;lon;timestamp;temperature;humidity
61323;DHT22;47203;48.428;11.974;2023-12-28T00:07:52;7.90;54.90
61323;DHT22;47203;48.428;11.974;2023-12-28T00:10:00;7.90;54.70
61323;DHT22;47203;48.428;11.974;2023-12-28T00:12:04;8.00;54.80
61323;DHT22;47203;48.428;11.974;2023-12-28T00:24:32;8.20;54.70
61323;DHT22;47203;48.428;11.974;2023-12-28T00:26:35;8.20;54.50
61323;DHT22;47203;48.428;11.974;2023-12-28T00:30:43;8.20;54.40
61323;DHT22;47203;48.428;11.974;2023-12-28T00:32:48;8.20;54.40
61323;DHT22;47203;48.428;11.974;2023-12-28T00:36:55;8.20;54.30
61323;DHT22;47203;48.428;11.974;2023-12-28T00:41:04;8.20;54.20
61323;DHT22;47203;48.428;11.974;2023-12-28T00:43:09;8.20;54.20
61323;DHT22;47203;48.428;11.974;2023-12-28T00:45:12;8.20;54.30
61323;DHT22;47203;48.428;11.974;2023-12-28T00:47:16;8.10;54.60
61323;DHT22;47203;48.428;11.974;2023-12-28T00:53:26;8.00;54.10
61323;DHT22;47203;48.428;11.974;2023-12-28T01:01:45;8.00;54.20
61323;DHT22;47203;48.428;11.974;2023-12-28T01:03:49;8.00;54.20
61323;DHT22;47203;48.428;11.974;2023-12-28T01:05:54;8.00;54.20
61323;DHT22;47203;48.428;11.974;2023-12-28T01:07:58;7.90;54.10
61323;DHT22;47203;48.428;11.974;2023-12-28T01:16:15;7.70;54.20
61323;DHT22;47203;48.428;11.974;2023-12-28T01:22:26;7.80;54.30
61323;DHT22;47203;48.428;11.974;2023-12-28T01:32:48;7.70;54.20
61323;DHT22;47203;48.428;11.974;2023-12-28T01:34:51;7.70;54.40
61323;DHT22;47203;48.428;11.974;2023-12-28T01:36:55;7.60;54.20
61323;DHT22;47203;48.428;11.974;2023-12-28T01:38:59;7.60;54.30
61323;DHT22;47203;48.428;11.974;2023-12-28T01:41:02;7.60;54.80
61323;DHT22;47203;48.428;11.974;2023-12-28T01:43:06;7.60;54.80
61323;DHT22;47203;48.428;11.974;2023-12-28T01:45:10;7.60;54.70
61323;DHT22;47203;48.428;11.974;2023-12-28T01:47:14;7.50;54.70
61323;DHT22;47203;48.428;11.974;2023-12-28T01:49:17;7.50;54.70
61323;DHT22;47203;48.428;11.974;2023-12-28T01:51:22;7.50;54.70
61323;DHT22;47203;48.428;11.974;2023-12-28T01:53:26;7.40;54.40
61323;DHT22;47203;48.428;11.974;2023-12-28T01:55:30;7.50;54.50
61323;DHT22;47203;48.428;11.974;2023-12-28T01:57:35;7.50;54.40
61323;DHT22;47203;48.428;11.974;2023-12-28T01:59:39;7.70;55.00
61323;DHT22;47203;48.428;11.974;2023-12-28T02:01:45;7.40;54.90
61323;DHT22;47203;48.428;11.974;2023-12-28T02:03:49;7.40;54.90
61323;DHT22;47203;48.428;11.974;2023-12-28T02:05:53;7.40;54.80
61323;DHT22;47203;48.428;11.974;2023-12-28T02:07:57;7.40;54.80
61323;DHT22;47203;48.428;11.974;2023-12-28T02:10:01;7.30;54.80
61323;DHT22;47203;48.428;11.974;2023-12-28T02:12:05;7.30;54.80
61323;DHT22;47203;48.428;11.974;2023-12-28T02:14:09;7.30;54.80
61323;DHT22;47203;48.428;11.974;2023-12-28T02:16:17;7.30;54.80
61323;DHT22;47203;48.428;11.974;2023-12-28T02:18:34;7.30;54.80
61323;DHT22;47203;48.428;11.974;2023-12-28T02:20:41;7.40;54.80
61323;DHT22;47203;48.428;11.974;2023-12-28T02:22:50;7.30;54.70
61323;DHT22;47203;48.428;11.974;2023-12-28T02:25:10;7.20;54.70
61323;DHT22;47203;48.428;11.974;2023-12-28T02:27:15;7.20;54.70
61323;DHT22;47203;48.428;11.974;2023-12-28T02:29:18;7.20;54.20
61323;DHT22;47203;48.428;11.974;2023-12-28T02:31:27;7.30;54.30
61323;DHT22;47203;48.428;11.974;2023-12-28T02:33:41;8.10;55.10
61323;DHT22;47203;48.428;11.974;2023-12-28T02:35:54;7.20;54.60
61323;DHT22;47203;48.428;11.974;2023-12-28T02:38:04;7.30;54.60
61323;DHT22;47203;48.428;11.974;2023-12-28T02:40:15;7.20;54.50
61323;DHT22;47203;48.428;11.974;2023-12-28T02:42:19;7.20;54.40
61323;DHT22;47203;48.428;11.974;2023-12-28T02:44:22;7.20;54.40
61323;DHT22;47203;48.428;11.974;2023-12-28T02:46:25;7.20;54.30
61323;DHT22;47203;48.428;11.974;2023-12-28T02:48:29;7.20;54.40
61323;DHT22;47203;48.428;11.974;2023-12-28T02:50:32;7.40;54.60
61323;DHT22;47203;48.428;11.974;2023-12-28T02:52:37;7.20;54.40
61323;DHT22;47203;48.428;11.974;2023-12-28T02:54:40;7.10;54.30
61323;DHT22;47203;48.428;11.974;2023-12-28T02:56:45;7.10;53.80
61323;DHT22;47203;48.428;11.974;2023-12-28T02:58:49;7.10;54.30
61323;DHT22;47203;48.428;11.974;2023-12-28T03:00:52;7.10;54.40
61323;DHT22;47203;48.428;11.974;2023-12-28T03:02:59;7.10;54.40
61323;DHT22;47203;48.428;11.974;2023-12-28T03:05:04;7.10;54.40
61323;DHT22;47203;48.428;11.974;2023-12-28T03:07:09;7.10;54.30
61323;DHT22;47203;48.428;11.974;2023-12-28T03:09:13;7.10;54.30
61323;DHT22;47203;48.428;11.974;2023-12-28T03:11:17;7.10;54.30
61323;DHT22;47203;48.428;11.974;2023-12-28T03:13:23;7.10;54.40
61323;DHT22;47203;48.428;11.974;2023-12-28T03:15:27;7.10;53.80
61323;DHT22;47203;48.428;11.974;2023-12-28T03:17:30;7.10;54.30
61323;DHT22;47203;48.428;11.974;2023-12-28T03:19:36;7.10;54.30
61323;DHT22;47203;48.428;11.974;2023-12-28T03:21:41;7.10;54.10
61323;DHT22;47203;48.428;11.974;2023-12-28T03:23:45;7.10;54.10
61323;DHT22;47203;48.428;11.974;2023-12-28T03:25:48;7.10;54.00
61323;DHT22;47203;48.428;11.974;2023-12-28T03:27:52;7.00;53.80
61323;DHT22;47203;48.428;11.974;2023-12-28T03:29:58;7.10;53.90
61323;DHT22;47203;48.428;11.974;2023-12-28T03:32:02;7.10;53.80
61323;DHT22;47203;48.428;11.974;2023-12-28T03:34:05;7.10;53.80
61323;DHT22;47203;48.428;11.974;2023-12-28T03:36:17;7.10;53.70
61323;DHT22;47203;48.428;11.974;2023-12-28T03:38:21;7.10;53.40
61323;DHT22;47203;48.428;11.974;2023-12-28T03:40:25;7.10;53.60
61323;DHT22;47203;48.428;11.974;2023-12-28T03:42:29;7.20;53.50
61323;DHT22;47203;48.428;11.974;2023-12-28T03:44:32;7.30;53.40
61323;DHT22;47203;48.428;11.974;2023-12-28T03:46:37;7.30;53.30
61323;DHT22;47203;48.428;11.974;2023-12-28T03:48:41;7.30;53.10
61323;DHT22;47203;48.428;11.974;2023-12-28T03:50:44;7.40;53.10
61323;DHT22;47203;48.428;11.974;2023-12-28T03:52:48;7.40;52.90
61323;DHT22;47203;48.428;11.974;2023-12-28T03:54:52;7.50;52.80
61323;DHT22;47203;48.428;11.974;2023-12-28T03:56:55;7.60;52.10
61323;DHT22;47203;48.428;11.974;2023-12-28T03:58:59;7.50;52.60
61323;DHT22;47203;48.428;11.974;2023-12-28T04:01:01;7.60;52.50
61323;DHT22;47203;48.428;11.974;2023-12-28T04:03:06;7.70;52.40
61323;DHT22;47203;48.428;11.974;2023-12-28T04:05:11;7.70;51.70
61323;DHT22;47203;48.428;11.974;2023-12-28T04:07:14;7.70;51.60
61323;DHT22;47203;48.428;11.974;2023-12-28T04:11:22;7.90;51.40
61323;DHT22;47203;48.428;11.974;2023-12-28T04:13:26;7.90;51.90
61323;DHT22;47203;48.428;11.974;2023-12-28T04:15:29;8.30;51.90
61323;DHT22;47203;48.428;11.974;2023-12-28T04:17:33;8.00;51.60
61323;DHT22;47203;48.428;11.974;2023-12-28T04:19:38;8.00;52.10
61323;DHT22;47203;48.428;11.974;2023-12-28T04:21:43;8.00;51.30
61323;DHT22;47203;48.428;11.974;2023-12-28T04:25:49;8.10;50.70
61323;DHT22;47203;48.428;11.974;2023-12-28T04:27:53;8.10;51.10
61323;DHT22;47203;48.428;11.974;2023-12-28T04:29:57;9.10;51.50
61323;DHT22;47203;48.428;11.974;2023-12-28T04:31:59;8.20;51.00
61323;DHT22;47203;48.428;11.974;2023-12-28T04:34:03;8.20;50.90
61323;DHT22;47203;48.428;11.974;2023-12-28T04:36:07;8.20;50.80
61323;DHT22;47203;48.428;11.974;2023-12-28T04:38:11;8.20;50.00
61323;DHT22;47203;48.428;11.974;2023-12-28T04:40:14;10.60;51.90
61323;DHT22;47203;48.428;11.974;2023-12-28T04:42:20;8.80;50.80
61323;DHT22;47203;48.428;11.974;2023-12-28T04:44:24;8.30;51.10
61323;DHT22;47203;48.428;11.974;2023-12-28T04:46:27;8.30;50.50
61323;DHT22;47203;48.428;11.974;2023-12-28T04:48:31;8.30;50.40
61323;DHT22;47203;48.428;11.974;2023-12-28T04:50:37;8.30;50.30
61323;DHT22;47203;48.428;11.974;2023-12-28T04:52:42;8.30;50.20
61323;DHT22;47203;48.428;11.974;2023-12-28T04:54:46;8.50;50.20
61323;DHT22;47203;48.428;11.974;2023-12-28T04:56:49;8.40;49.80
61323;DHT22;47203;48.428;11.974;2023-12-28T04:58:54;8.40;49.70
61323;DHT22;47203;48.428;11.974;2023-12-28T05:00:58;8.40;50.20
61323;DHT22;47203;48.428;11.974;2023-12-28T05:03:01;8.40;50.00
61323;DHT22;47203;48.428;11.974;2023-12-28T05:05:04;8.50;50.00
61323;DHT22;47203;48.428;11.974;2023-12-28T05:07:11;8.40;50.00
61323;DHT22;47203;48.428;11.974;2023-12-28T05:09:16;8.40;49.80
61323;DHT22;47203;48.428;11.974;2023-12-28T05:11:20;8.50;49.80
61323;DHT22;47203;48.428;11.974;2023-12-28T05:13:22;8.50;49.80
61323;DHT22;47203;48.428;11.974;2023-12-28T05:15:26;8.50;49.70
61323;DHT22;47203;48.428;11.974;2023-12-28T05:17:30;8.50;49.60
61323;DHT22;47203;48.428;11.974;2023-12-28T05:19:33;8.50;49.60
61323;DHT22;47203;48.428;11.974;2023-12-28T05:21:36;8.50;49.50
61323;DHT22;47203;48.428;11.974;2023-12-28T05:23:39;8.50;49.50
61323;DHT22;47203;48.428;11.974;2023-12-28T05:25:44;8.60;49.40
61323;DHT22;47203;48.428;11.974;2023-12-28T05:27:48;8.50;49.50
61323;DHT22;47203;48.428;11.974;2023-12-28T05:29:51;8.60;49.50
61323;DHT22;47203;48.428;11.974;2023-12-28T05:31:55;8.50;49.40
61323;DHT22;47203;48.428;11.974;2023-12-28T05:33:58;8.60;49.40
61323;DHT22;47203;48.428;11.974;2023-12-28T05:36:02;8.50;49.30
61323;DHT22;47203;48.428;11.974;2023-12-28T05:38:06;8.50;49.10
61323;DHT22;47203;48.428;11.974;2023-12-28T05:40:10;8.70;49.20
61323;DHT22;47203;48.428;11.974;2023-12-28T05:42:16;8.60;49.10
61323;DHT22;47203;48.428;11.974;2023-12-28T05:44:20;8.60;49.00
61323;DHT22;47203;48.428;11.974;2023-12-28T05:46:23;8.70;49.20
61323;DHT22;47203;48.428;11.974;2023-12-28T05:48:26;8.70;49.70
61323;DHT22;47203;48.428;11.974;2023-12-28T05:50:30;8.70;49.00
61323;DHT22;47203;48.428;11.974;2023-12-28T05:54:37;8.70;48.50
61323;DHT22;47203;48.428;11.974;2023-12-28T05:56:41;8.70;48.40
61323;DHT22;47203;48.428;11.974;2023-12-28T05:58:45;8.70;48.80
61323;DHT22;47203;48.428;11.974;2023-12-28T06:00:49;8.70;48.80
61323;DHT22;47203;48.428;11.974;2023-12-28T06:02:52;8.70;48.80
61323;DHT22;47203;48.428;11.974;2023-12-28T06:04:56;8.70;48.90
61323;DHT22;47203;48.428;11.974;2023-12-28T06:07:01;8.70;49.00
61323;DHT22;47203;48.428;11.974;2023-12-28T06:09:06;8.60;49.00
61323;DHT22;47203;48.428;11.974;2023-12-28T06:11:09;8.60;49.10
61323;DHT22;47203;48.428;11.974;2023-12-28T06:13:13;8.60;49.10
61323;DHT22;47203;48.428;11.974;2023-12-28T06:15:18;8.50;49.10
61323;DHT22;47203;48.428;11.974;2023-12-28T06:17:21;8.40;49.10
61323;DHT22;47203;48.428;11.974;2023-12-28T06:19:25;8.40;49.20
61323;DHT22;47203;48.428;11.974;2023-12-28T06:21:29;8.20;49.30
61323;DHT22;47203;48.428;11.974;2023-12-28T06:23:33;8.10;48.90
61323;DHT22;47203;48.428;11.974;2023-12-28T06:25:36;8.00;49.60
61323;DHT22;47203;48.428;11.974;2023-12-28T06:27:40;8.00;49.70
61323;DHT22;47203;48.428;11.974;2023-12-28T06:29:44;7.80;49.30
61323;DHT22;47203;48.428;11.974;2023-12-28T06:31:49;7.80;50.00
61323;DHT22;47203;48.428;11.974;2023-12-28T06:33:53;7.70;50.10
61323;DHT22;47203;48.428;11.974;2023-12-28T06:35:56;7.60;49.70
61323;DHT22;47203;48.428;11.974;2023-12-28T06:38:00;7.50;50.20
61323;DHT22;47203;48.428;11.974;2023-12-28T06:40:05;7.50;49.90
61323;DHT22;47203;48.428;11.974;2023-12-28T06:42:09;7.40;50.50
61323;DHT22;47203;48.428;11.974;2023-12-28T06:44:13;7.40;51.10
61323;DHT22;47203;48.428;11.974;2023-12-28T06:46:16;7.30;50.60
61323;DHT22;47203;48.428;11.974;2023-12-28T06:48:21;7.30;50.30
61323;DHT22;47203;48.428;11.974;2023-12-28T06:50:26;7.20;50.90
61323;DHT22;47203;48.428;11.974;2023-12-28T06:52:28;7.20;50.90
61323;DHT22;47203;48.428;11.974;2023-12-28T06:54:33;7.20;51.20
61323;DHT22;47203;48.428;11.974;2023-12-28T06:58:41;7.10;50.90
61323;DHT22;47203;48.428;11.974;2023-12-28T07:00:45;7.00;51.40
61323;DHT22;47203;48.428;11.974;2023-12-28T07:02:49;7.00;51.40
61323;DHT22;47203;48.428;11.974;2023-12-28T07:04:53;7.00;51.00
61323;DHT22;47203;48.428;11.974;2023-12-28T07:06:56;7.00;51.60
61323;DHT22;47203;48.428;11.974;2023-12-28T07:08:59;7.00;51.70
61323;DHT22;47203;48.428;11.974;2023-12-28T07:11:04;6.90;51.60
61323;DHT22;47203;48.428;11.974;2023-12-28T07:13:07;6.90;51.20
61323;DHT22;47203;48.428;11.974;2023-12-28T07:15:11;6.90;51.60
61323;DHT22;47203;48.428;11.974;2023-12-28T07:17:16;6.90;51.20
61323;DHT22;47203;48.428;11.974;2023-12-28T07:19:20;6.90;51.70
61323;DHT22;47203;48.428;11.974;2023-12-28T07:21:25;6.90;51.20
61323;DHT22;47203;48.428;11.974;2023-12-28T07:23:29;6.90;51.60
61323;DHT22;47203;48.428;11.974;2023-12-28T07:25:32;7.50;51.90
61323;DHT22;47203;48.428;11.974;2023-12-28T07:27:36;7.00;51.50
61323;DHT22;47203;48.428;11.974;2023-12-28T07:29:39;7.10;51.50
61323;DHT22;47203;48.428;11.974;2023-12-28T07:31:43;7.10;51.40
61323;DHT22;47203;48.428;11.974;2023-12-28T07:33:46;7.30;50.80
61323;DHT22;47203;48.428;11.974;2023-12-28T07:35:50;7.30;51.30
61323;DHT22;47203;48.428;11.974;2023-12-28T07:37:55;7.40;51.20
61323;DHT22;47203;48.428;11.974;2023-12-28T07:39:59;7.40;50.40
61323;DHT22;47203;48.428;11.974;2023-12-28T07:42:02;7.60;51.00
61323;DHT22;47203;48.428;11.974;2023-12-28T07:44:06;7.70;50.90
61323;DHT22;47203;48.428;11.974;2023-12-28T07:46:09;7.90;50.10
61323;DHT22;47203;48.428;11.974;2023-12-28T07:48:12;10.90;52.20
61323;DHT22;47203;48.428;11.974;2023-12-28T07:50:16;8.10;50.50
61323;DHT22;47203;48.428;11.974;2023-12-28T07:52:18;8.20;49.80
61323;DHT22;47203;48.428;11.974;2023-12-28T07:54:23;8.50;49.60
61323;DHT22;47203;48.428;11.974;2023-12-28T07:56:25;8.40;50.00
61323;DHT22;47203;48.428;11.974;2023-12-28T07:58:29;8.60;48.80
61323;DHT22;47203;48.428;11.974;2023-12-28T08:00:33;8.80;49.80
61323;DHT22;47203;48.428;11.974;2023-12-28T08:02:35;8.90;49.70
61323;DHT22;47203;48.428;11.974;2023-12-28T08:04:39;9.00;49.50
61323;DHT22;47203;48.428;11.974;2023-12-28T08:06:42;9.20;49.60
61323;DHT22;47203;48.428;11.974;2023-12-28T08:08:45;9.40;49.50
61323;DHT22;47203;48.428;11.974;2023-12-28T08:10:52;9.60;49.80
61323;DHT22;47203;48.428;11.974;2023-12-28T08:12:54;9.70;50.10
61323;DHT22;47203;48.428;11.974;2023-12-28T08:14:59;9.90;49.60
61323;DHT22;47203;48.428;11.974;2023-12-28T08:17:03;10.80;50.50
61323;DHT22;47203;48.428;11.974;2023-12-28T08:19:05;10.10;50.10
61323;DHT22;47203;48.428;11.974;2023-12-28T08:21:09;10.20;50.10
61323;DHT22;47203;48.428;11.974;2023-12-28T08:23:13;10.30;50.20
61323;DHT22;47203;48.428;11.974;2023-12-28T08:25:19;10.40;49.80
61323;DHT22;47203;48.428;11.974;2023-12-28T08:27:29;10.50;49.40
61323;DHT22;47203;48.428;11.974;2023-12-28T08:31:39;10.80;48.70
61323;DHT22;47203;48.428;11.974;2023-12-28T08:33:46;11.10;48.40
61323;DHT22;47203;48.428;11.974;2023-12-28T08:35:51;11.10;48.70
61323;DHT22;47203;48.428;11.974;2023-12-28T08:37:54;11.20;48.40
61323;DHT22;47203;48.428;11.974;2023-12-28T08:39:57;11.40;47.90
61323;DHT22;47203;48.428;11.974;2023-12-28T08:42:01;11.50;47.50
61323;DHT22;47203;48.428;11.974;2023-12-28T08:44:07;11.70;47.30
61323;DHT22;47203;48.428;11.974;2023-12-28T08:46:11;11.80;46.80
61323;DHT22;47203;48.428;11.974;2023-12-28T08:48:16;12.00;46.90
61323;DHT22;47203;48.428;11.974;2023-12-28T08:50:21;12.10;46.60
61323;DHT22;47203;48.428;11.974;2023-12-28T08:52:25;12.30;46.30
61323;DHT22;47203;48.428;11.974;2023-12-28T08:54:29;12.40;46.00
61323;DHT22;47203;48.428;11.974;2023-12-28T08:56:33;12.60;46.00
61323;DHT22;47203;48.428;11.974;2023-12-28T08:58:36;12.70;44.90
61323;DHT22;47203;48.428;11.974;2023-12-28T09:00:40;12.90;45.70
61323;DHT22;47203;48.428;11.974;2023-12-28T09:02:47;13.10;45.40
61323;DHT22;47203;48.428;11.974;2023-12-28T09:04:50;13.20;44.70
61323;DHT22;47203;48.428;11.974;2023-12-28T09:06:54;13.40;45.20
61323;DHT22;47203;48.428;11.974;2023-12-28T09:08:58;13.60;45.00
61323;DHT22;47203;48.428;11.974;2023-12-28T09:11:02;13.70;44.80
61323;DHT22;47203;48.428;11.974;2023-12-28T09:13:16;13.80;44.40
61323;DHT22;47203;48.428;11.974;2023-12-28T09:15:23;13.90;43.60
61323;DHT22;47203;48.428;11.974;2023-12-28T09:17:36;14.00;43.90
61323;DHT22;47203;48.428;11.974;2023-12-28T09:19:41;14.10;43.50
61323;DHT22;47203;48.428;11.974;2023-12-28T09:21:44;14.10;43.50
61323;DHT22;47203;48.428;11.974;2023-12-28T09:23:47;14.20;43.50
61323;DHT22;47203;48.428;11.974;2023-12-28T09:25:50;14.20;43.50
61323;DHT22;47203;48.428;11.974;2023-12-28T09:27:54;14.20;43.40
61323;DHT22;47203;48.428;11.974;2023-12-28T09:29:57;14.30;43.40
61323;DHT22;47203;48.428;11.974;2023-12-28T09:32:01;14.40;43.20
61323;DHT22;47203;48.428;11.974;2023-12-28T09:34:06;14.40;42.00
61323;DHT22;47203;48.428;11.974;2023-12-28T09:36:09;14.50;42.90
61323;DHT22;47203;48.428;11.974;2023-12-28T09:38:15;14.60;42.90
61323;DHT22;47203;48.428;11.974;2023-12-28T09:40:18;14.60;42.90
61323;DHT22;47203;48.428;11.974;2023-12-28T09:42:25;14.60;42.30
61323;DHT22;47203;48.428;11.974;2023-12-28T09:44:32;14.70;42.90
61323;DHT22;47203;48.428;11.974;2023-12-28T09:46:41;14.80;43.00
61323;DHT22;47203;48.428;11.974;2023-12-28T09:48:46;15.10;43.10
61323;DHT22;47203;48.428;11.974;2023-12-28T09:50:51;15.00;43.00
61323;DHT22;47203;48.428;11.974;2023-12-28T09:52:57;15.10;42.80
61323;DHT22;47203;48.428;11.974;2023-12-28T09:55:01;15.20;42.80
61323;DHT22;47203;48.428;11.974;2023-12-28T09:57:05;15.30;42.80
61323;DHT22;47203;48.428;11.974;2023-12-28T09:59:08;15.50;42.70
61323;DHT22;47203;48.428;11.974;2023-12-28T10:01:14;15.50;42.60
61323;DHT22;47203;48.428;11.974;2023-12-28T10:03:19;15.50;42.40
61323;DHT22;47203;48.428;11.974;2023-12-28T10:05:22;15.50;42.40
61323;DHT22;47203;48.428;11.974;2023-12-28T10:07:26;15.60;42.50
61323;DHT22;47203;48.428;11.974;2023-12-28T10:09:30;15.80;42.70
61323;DHT22;47203;48.428;11.974;2023-12-28T10:11:33;15.70;42.80
61323;DHT22;47203;48.428;11.974;2023-12-28T10:13:37;15.80;42.90
61323;DHT22;47203;48.428;11.974;2023-12-28T10:15:40;15.90;42.90
61323;DHT22;47203;48.428;11.974;2023-12-28T10:17:46;15.90;42.90
61323;DHT22;47203;48.428;11.974;2023-12-28T10:19:50;15.90;42.90
61323;DHT22;47203;48.428;11.974;2023-12-28T10:21:53;16.10;42.90
61323;DHT22;47203;48.428;11.974;2023-12-28T10:23:58;16.00;42.90
61323;DHT22;47203;48.428;11.974;2023-12-28T10:26:03;16.00;42.50
61323;DHT22;47203;48.428;11.974;2023-12-28T10:28:08;16.10;42.80
61323;DHT22;47203;48.428;11.974;2023-12-28T10:30:14;16.10;42.70
61323;DHT22;47203;48.428;11.974;2023-12-28T10:32:18;16.20;43.00
61323;DHT22;47203;48.428;11.974;2023-12-28T10:34:22;16.20;42.90
61323;DHT22;47203;48.428;11.974;2023-12-28T10:36:28;16.20;42.60
61323;DHT22;47203;48.428;11.974;2023-12-28T10:38:34;16.30;42.50
61323;DHT22;47203;48.428;11.974;2023-12-28T10:40:41;16.30;42.10
61323;DHT22;47203;48.428;11.974;2023-12-28T10:42:52;16.30;42.20
61323;DHT22;47203;48.428;11.974;2023-12-28T10:45:02;16.30;42.00
61323;DHT22;47203;48.428;11.974;2023-12-28T10:47:15;16.50;41.50
61323;DHT22;47203;48.428;11.974;2023-12-28T10:49:21;16.40;41.30
61323;DHT22;47203;48.428;11.974;2023-12-28T10:51:28;16.40;42.00
61323;DHT22;47203;48.428;11.974;2023-12-28T10:53:37;16.40;41.50
61323;DHT22;47203;48.428;11.974;2023-12-28T10:55:53;16.50;41.70
61323;DHT22;47203;48.428;11.974;2023-12-28T10:58:10;16.50;41.20
61323;DHT22;47203;48.428;11.974;2023-12-28T11:00:20;16.50;41.70
61323;DHT22;47203;48.428;11.974;2023-12-28T11:02:29;16.50;41.50
61323;DHT22;47203;48.428;11.974;2023-12-28T11:04:46;16.50;42.10
61323;DHT22;47203;48.428;11.974;2023-12-28T11:06:52;16.50;41.30
61323;DHT22;47203;48.428;11.974;2023-12-28T11:08:59;16.50;41.30
61323;DHT22;47203;48.428;11.974;2023-12-28T11:11:06;16.50;41.10
61323;DHT22;47203;48.428;11.974;2023-12-28T11:13:20;16.60;41.10
61323;DHT22;47203;48.428;11.974;2023-12-28T11:15:26;16.40;40.90
61323;DHT22;47203;48.428;11.974;2023-12-28T11:17:30;16.30;40.90
61323;DHT22;47203;48.428;11.974;2023-12-28T11:19:36;16.40;40.90
61323;DHT22;47203;48.428;11.974;2023-12-28T11:21:41;16.20;40.60
61323;DHT22;47203;48.428;11.974;2023-12-28T11:23:45;16.10;40.60
61323;DHT22;47203;48.428;11.974;2023-12-28T11:25:50;16.10;40.80
61323;DHT22;47203;48.428;11.974;2023-12-28T11:27:55;16.10;40.90
61323;DHT22;47203;48.428;11.974;2023-12-28T11:29:58;15.90;40.90
61323;DHT22;47203;48.428;11.974;2023-12-28T11:32:01;15.90;41.00
61323;DHT22;47203;48.428;11.974;2023-12-28T11:34:05;15.80;41.10
61323;DHT22;47203;48.428;11.974;2023-12-28T11:36:21;15.70;41.40
61323;DHT22;47203;48.428;11.974;2023-12-28T11:38:28;15.30;40.70
61323;DHT22;47203;48.428;11.974;2023-12-28T11:40:31;15.60;41.40
61323;DHT22;47203;48.428;11.974;2023-12-28T11:42:53;15.90;41.50
61323;DHT22;47203;48.428;11.974;2023-12-28T11:44:59;15.50;41.10
61323;DHT22;47203;48.428;11.974;2023-12-28T11:47:11;15.50;41.50
61323;DHT22;47203;48.428;11.974;2023-12-28T11:49:15;15.40;41.30
61323;DHT22;47203;48.428;11.974;2023-12-28T11:51:27;15.40;41.50
61323;DHT22;47203;48.428;11.974;2023-12-28T11:53:30;15.40;41.40
61323;DHT22;47203;48.428;11.974;2023-12-28T11:55:34;15.40;42.00
61323;DHT22;47203;48.428;11.974;2023-12-28T11:57:37;15.40;40.90
61323;DHT22;47203;48.428;11.974;2023-12-28T11:59:43;15.30;41.60
61323;DHT22;47203;48.428;11.974;2023-12-28T12:01:49;15.30;41.70
61323;DHT22;47203;48.428;11.974;2023-12-28T12:03:54;15.30;41.50
61323;DHT22;47203;48.428;11.974;2023-12-28T12:05:57;15.30;41.20
61323;DHT22;47203;48.428;11.974;2023-12-28T12:08:01;15.50;42.10
61323;DHT22;47203;48.428;11.974;2023-12-28T12:10:07;15.30;41.80
61323;DHT22;47203;48.428;11.974;2023-12-28T12:12:16;15.30;41.70
61323;DHT22;47203;48.428;11.974;2023-12-28T12:14:20;15.30;41.70
61323;DHT22;47203;48.428;11.974;2023-12-28T12:16:25;15.40;41.90
61323;DHT22;47203;48.428;11.974;2023-12-28T12:18:27;15.30;41.70
61323;DHT22;47203;48.428;11.974;2023-12-28T12:20:32;15.30;42.30
61323;DHT22;47203;48.428;11.974;2023-12-28T12:22:39;15.20;41.60
61323;DHT22;47203;48.428;11.974;2023-12-28T12:24:44;15.20;41.60
61323;DHT22;47203;48.428;11.974;2023-12-28T12:26:52;15.20;41.60
61323;DHT22;47203;48.428;11.974;2023-12-28T12:28:56;15.20;41.80
61323;DHT22;47203;48.428;11.974;2023-12-28T12:31:00;15.20;41.80
61323;DHT22;47203;48.428;11.974;2023-12-28T12:33:12;15.10;41.30
61323;DHT22;47203;48.428;11.974;2023-12-28T12:35:16;15.10;41.60
61323;DHT22;47203;48.428;11.974;2023-12-28T12:37:23;15.10;42.00
61323;DHT22;47203;48.428;11.974;2023-12-28T12:39:30;15.00;42.00
61323;DHT22;47203;48.428;11.974;2023-12-28T12:43:42;15.00;41.60
61323;DHT22;47203;48.428;11.974;2023-12-28T12:45:46;15.00;42.40
61323;DHT22;47203;48.428;11.974;2023-12-28T12:47:51;15.00;42.70
61323;DHT22;47203;48.428;11.974;2023-12-28T12:49:58;14.90;42.70
61323;DHT22;47203;48.428;11.974;2023-12-28T12:52:02;14.90;43.00
61323;DHT22;47203;48.428;11.974;2023-12-28T12:54:07;14.90;43.20
61323;DHT22;47203;48.428;11.974;2023-12-28T12:56:12;14.90;43.30
61323;DHT22;47203;48.428;11.974;2023-12-28T12:58:16;14.80;43.30
61323;DHT22;47203;48.428;11.974;2023-12-28T13:00:20;14.80;43.50
61323;DHT22;47203;48.428;11.974;2023-12-28T13:02:24;14.80;43.60
61323;DHT22;47203;48.428;11.974;2023-12-28T13:04:29;14.80;43.70
61323;DHT22;47203;48.428;11.974;2023-12-28T13:06:34;14.80;43.70
61323;DHT22;47203;48.428;11.974;2023-12-28T13:08:38;14.70;43.70
61323;DHT22;47203;48.428;11.974;2023-12-28T13:10:48;14.70;43.70
61323;DHT22;47203;48.428;11.974;2023-12-28T13:12:51;14.70;43.90
61323;DHT22;47203;48.428;11.974;2023-12-28T13:14:58;14.70;44.00
61323;DHT22;47203;48.428;11.974;2023-12-28T13:17:02;14.70;44.10
61323;DHT22;47203;48.428;11.974;2023-12-28T13:19:06;14.70;43.90
61323;DHT22;47203;48.428;11.974;2023-12-28T13:21:11;14.70;43.90
61323;DHT22;47203;48.428;11.974;2023-12-28T13:23:17;14.60;43.90
61323;DHT22;47203;48.428;11.974;2023-12-28T13:25:21;14.60;43.80
61323;DHT22;47203;48.428;11.974;2023-12-28T13:27:24;14.60;43.90
61323;DHT22;47203;48.428;11.974;2023-12-28T13:29:30;14.60;43.90
61323;DHT22;47203;48.428;11.974;2023-12-28T13:31:33;14.60;44.00
61323;DHT22;47203;48.428;11.974;2023-12-28T13:33:36;14.60;44.00
61323;DHT22;47203;48.428;11.974;2023-12-28T13:35:45;14.60;44.10
61323;DHT22;47203;48.428;11.974;2023-12-28T13:37:49;14.50;43.50
61323;DHT22;47203;48.428;11.974;2023-12-28T13:39:54;14.50;44.10
61323;DHT22;47203;48.428;11.974;2023-12-28T13:41:57;14.50;43.90
61323;DHT22;47203;48.428;11.974;2023-12-28T13:44:01;14.50;43.80
61323;DHT22;47203;48.428;11.974;2023-12-28T13:46:05;14.50;43.70
61323;DHT22;47203;48.428;11.974;2023-12-28T13:48:11;14.50;43.50
61323;DHT22;47203;48.428;11.974;2023-12-28T13:50:15;14.50;43.50
61323;DHT22;47203;48.428;11.974;2023-12-28T13:52:18;14.50;43.40
61323;DHT22;47203;48.428;11.974;2023-12-28T13:54:21;14.50;43.30
61323;DHT22;47203;48.428;11.974;2023-12-28T13:56:26;14.50;43.10
61323;DHT22;47203;48.428;11.974;2023-12-28T13:58:30;14.50;42.10
61323;DHT22;47203;48.428;11.974;2023-12-28T14:00:33;14.50;42.80
61323;DHT22;47203;48.428;11.974;2023-12-28T14:02:37;14.40;42.70
61323;DHT22;47203;48.428;11.974;2023-12-28T14:04:41;14.50;42.80
61323;DHT22;47203;48.428;11.974;2023-12-28T14:06:45;14.50;42.80
61323;DHT22;47203;48.428;11.974;2023-12-28T14:08:49;14.50;42.70